sensor_id;sensor_type;location;lat;lon;timestamp;temperature;humidity
3923;DHT22;1976;51.694;6.256;2023-09-19T00:01:06;15.80;99.90
3923;DHT22;1976;51.694;6.256;2023-09-19T00:03:36;15.90;99.90
3923;DHT22;1976;51.694;6.256;2023-09-19T00:06:03;15.90;99.90
3923;DHT22;1976;51.694;6.256;2023-09-19T00:08:30;15.90;99.90
3923;DHT22;1976;51.694;6.256;2023-09-19T00:10:56;16.00;99.90
3923;DHT22;1976;51.694;6.256;2023-09-19T00:13:24;15.90;99.90
3923;DHT22;1976;51.694;6.256;2023-09-19T00:15:50;15.90;99.90
3923;DHT22;1976;51.694;6.256;2023-09-19T00:18:17;15.90;99.90
3923;DHT22;1976;51.694;6.256;2023-09-19T00:20:44;15.90;99.90
3923;DHT22;1976;51.694;6.256;2023-09-19T00:23:13;15.90;99.90
3923;DHT22;1976;51.694;6.256;2023-09-19T00:25:39;15.90;99.90
3923;DHT22;1976;51.694;6.256;2023-09-19T00:28:06;15.80;99.90
3923;DHT22;1976;51.694;6.256;2023-09-19T00:30:33;15.80;99.90
3923;DHT22;1976;51.694;6.256;2023-09-19T00:32:59;15.80;99.90
3923;DHT22;1976;51.694;6.256;2023-09-19T00:35:26;15.80;99.90
3923;DHT22;1976;51.694;6.256;2023-09-19T00:37:53;15.80;99.90
3923;DHT22;1976;51.694;6.256;2023-09-19T00:40:19;16.00;99.90
3923;DHT22;1976;51.694;6.256;2023-09-19T00:42:46;15.90;99.90
3923;DHT22;1976;51.694;6.256;2023-09-19T00:45:13;15.80;99.90
3923;DHT22;1976;51.694;6.256;2023-09-19T00:47:40;15.80;99.90
3923;DHT22;1976;51.694;6.256;2023-09-19T00:50:08;15.70;99.90
3923;DHT22;1976;51.694;6.256;2023-09-19T00:52:35;15.70;99.90
3923;DHT22;1976;51.694;6.256;2023-09-19T00:55:05;15.60;99.90
3923;DHT22;1976;51.694;6.256;2023-09-19T00:57:32;15.60;99.90
3923;DHT22;1976;51.694;6.256;2023-09-19T00:59:59;15.60;99.90
3923;DHT22;1976;51.694;6.256;2023-09-19T01:02:26;15.50;99.90
3923;DHT22;1976;51.694;6.256;2023-09-19T01:04:55;15.50;99.90
3923;DHT22;1976;51.694;6.256;2023-09-19T01:07:21;15.40;99.90
3923;DHT22;1976;51.694;6.256;2023-09-19T01:09:48;15.30;99.90
3923;DHT22;1976;51.694;6.256;2023-09-19T01:12:16;15.30;99.90
3923;DHT22;1976;51.694;6.256;2023-09-19T01:14:59;15.30;99.90
3923;DHT22;1976;51.694;6.256;2023-09-19T01:17:34;15.30;99.90
3923;DHT22;1976;51.694;6.256;2023-09-19T01:23:11;15.20;99.90
3923;DHT22;1976;51.694;6.256;2023-09-19T01:28:32;15.10;99.90
3923;DHT22;1976;51.694;6.256;2023-09-19T01:31:02;15.00;99.90
3923;DHT22;1976;51.694;6.256;2023-09-19T01:33:52;15.10;99.90
3923;DHT22;1976;51.694;6.256;2023-09-19T01:36:16;15.10;99.90
3923;DHT22;1976;51.694;6.256;2023-09-19T01:38:42;15.10;99.90
3923;DHT22;1976;51.694;6.256;2023-09-19T01:41:11;15.10;99.90
3923;DHT22;1976;51.694;6.256;2023-09-19T01:43:44;15.20;99.90
3923;DHT22;1976;51.694;6.256;2023-09-19T01:51:43;15.20;99.90
3923;DHT22;1976;51.694;6.256;2023-09-19T01:54:12;15.10;99.90
3923;DHT22;1976;51.694;6.256;2023-09-19T01:57:01;15.10;99.90
3923;DHT22;1976;51.694;6.256;2023-09-19T01:59:36;15.10;99.90
3923;DHT22;1976;51.694;6.256;2023-09-19T02:02:04;15.10;99.90
3923;DHT22;1976;51.694;6.256;2023-09-19T02:04:33;15.00;99.90
3923;DHT22;1976;51.694;6.256;2023-09-19T02:07:00;15.00;99.90
3923;DHT22;1976;51.694;6.256;2023-09-19T02:09:26;14.90;99.90
3923;DHT22;1976;51.694;6.256;2023-09-19T02:11:52;14.90;99.90
3923;DHT22;1976;51.694;6.256;2023-09-19T02:14:18;14.90;99.90
3923;DHT22;1976;51.694;6.256;2023-09-19T02:16:45;14.80;99.90
3923;DHT22;1976;51.694;6.256;2023-09-19T02:19:11;14.90;99.90
3923;DHT22;1976;51.694;6.256;2023-09-19T02:21:36;14.90;99.90
3923;DHT22;1976;51.694;6.256;2023-09-19T02:24:02;14.80;99.90
3923;DHT22;1976;51.694;6.256;2023-09-19T02:26:28;14.70;99.90
3923;DHT22;1976;51.694;6.256;2023-09-19T02:28:54;14.80;99.90
3923;DHT22;1976;51.694;6.256;2023-09-19T02:31:19;14.80;99.90
3923;DHT22;1976;51.694;6.256;2023-09-19T02:33:45;14.80;99.90
3923;DHT22;1976;51.694;6.256;2023-09-19T02:36:11;14.70;99.90
3923;DHT22;1976;51.694;6.256;2023-09-19T02:38:37;14.70;99.90
3923;DHT22;1976;51.694;6.256;2023-09-19T02:41:03;14.70;99.90
3923;DHT22;1976;51.694;6.256;2023-09-19T02:43:28;14.70;99.90
3923;DHT22;1976;51.694;6.256;2023-09-19T02:45:54;14.70;99.90
3923;DHT22;1976;51.694;6.256;2023-09-19T02:48:20;14.70;99.90
3923;DHT22;1976;51.694;6.256;2023-09-19T02:50:52;14.60;99.90
3923;DHT22;1976;51.694;6.256;2023-09-19T02:53:17;14.60;99.90
3923;DHT22;1976;51.694;6.256;2023-09-19T02:55:44;14.60;99.90
3923;DHT22;1976;51.694;6.256;2023-09-19T02:58:10;14.60;99.90
3923;DHT22;1976;51.694;6.256;2023-09-19T03:00:40;14.50;99.90
3923;DHT22;1976;51.694;6.256;2023-09-19T03:03:08;14.60;99.90
3923;DHT22;1976;51.694;6.256;2023-09-19T03:05:34;14.50;99.90
3923;DHT22;1976;51.694;6.256;2023-09-19T03:08:00;14.50;99.90
3923;DHT22;1976;51.694;6.256;2023-09-19T03:10:27;14.40;99.90
3923;DHT22;1976;51.694;6.256;2023-09-19T03:12:53;14.40;99.90
3923;DHT22;1976;51.694;6.256;2023-09-19T03:15:19;14.40;99.90
3923;DHT22;1976;51.694;6.256;2023-09-19T03:17:47;14.40;99.90
3923;DHT22;1976;51.694;6.256;2023-09-19T03:20:14;14.40;99.90
3923;DHT22;1976;51.694;6.256;2023-09-19T03:22:45;14.30;99.90
3923;DHT22;1976;51.694;6.256;2023-09-19T03:25:11;14.30;99.90
3923;DHT22;1976;51.694;6.256;2023-09-19T03:27:40;14.30;99.90
3923;DHT22;1976;51.694;6.256;2023-09-19T03:30:07;14.30;99.90
3923;DHT22;1976;51.694;6.256;2023-09-19T03:32:44;14.30;99.90
3923;DHT22;1976;51.694;6.256;2023-09-19T03:35:10;14.30;99.90
3923;DHT22;1976;51.694;6.256;2023-09-19T03:37:36;14.20;99.90
3923;DHT22;1976;51.694;6.256;2023-09-19T03:40:02;14.20;99.90
3923;DHT22;1976;51.694;6.256;2023-09-19T03:42:31;14.20;99.90
3923;DHT22;1976;51.694;6.256;2023-09-19T03:44:56;14.20;99.90
3923;DHT22;1976;51.694;6.256;2023-09-19T03:47:22;14.20;99.90
3923;DHT22;1976;51.694;6.256;2023-09-19T03:49:48;14.20;99.90
3923;DHT22;1976;51.694;6.256;2023-09-19T03:52:14;14.10;99.90
3923;DHT22;1976;51.694;6.256;2023-09-19T03:57:08;14.20;99.90
3923;DHT22;1976;51.694;6.256;2023-09-19T03:59:34;14.10;99.90
3923;DHT22;1976;51.694;6.256;2023-09-19T04:02:01;14.20;99.90
3923;DHT22;1976;51.694;6.256;2023-09-19T04:04:27;14.10;99.90
3923;DHT22;1976;51.694;6.256;2023-09-19T04:06:54;14.10;99.90
3923;DHT22;1976;51.694;6.256;2023-09-19T04:09:20;14.10;99.90
3923;DHT22;1976;51.694;6.256;2023-09-19T04:11:45;14.00;99.90
3923;DHT22;1976;51.694;6.256;2023-09-19T04:14:11;14.00;99.90
3923;DHT22;1976;51.694;6.256;2023-09-19T04:16:37;14.00;99.90
3923;DHT22;1976;51.694;6.256;2023-09-19T04:19:02;14.00;99.90
3923;DHT22;1976;51.694;6.256;2023-09-19T04:21:29;13.90;99.90
3923;DHT22;1976;51.694;6.256;2023-09-19T04:23:54;13.90;99.90
3923;DHT22;1976;51.694;6.256;2023-09-19T04:26:20;13.90;99.90
3923;DHT22;1976;51.694;6.256;2023-09-19T04:28:47;14.00;99.90
3923;DHT22;1976;51.694;6.256;2023-09-19T04:31:12;13.90;99.90
3923;DHT22;1976;51.694;6.256;2023-09-19T04:33:39;13.90;99.90
3923;DHT22;1976;51.694;6.256;2023-09-19T04:36:05;13.90;99.90
3923;DHT22;1976;51.694;6.256;2023-09-19T04:38:33;13.80;99.90
3923;DHT22;1976;51.694;6.256;2023-09-19T04:40:58;13.80;99.90
3923;DHT22;1976;51.694;6.256;2023-09-19T04:43:24;13.80;99.90
3923;DHT22;1976;51.694;6.256;2023-09-19T04:45:50;13.70;99.90
3923;DHT22;1976;51.694;6.256;2023-09-19T04:48:16;13.60;99.90
3923;DHT22;1976;51.694;6.256;2023-09-19T04:50:42;13.70;99.90
3923;DHT22;1976;51.694;6.256;2023-09-19T04:53:08;13.80;99.90
3923;DHT22;1976;51.694;6.256;2023-09-19T04:55:33;13.70;99.90
3923;DHT22;1976;51.694;6.256;2023-09-19T04:57:59;13.80;99.90
3923;DHT22;1976;51.694;6.256;2023-09-19T05:00:25;13.80;99.90
3923;DHT22;1976;51.694;6.256;2023-09-19T05:02:55;13.80;99.90
3923;DHT22;1976;51.694;6.256;2023-09-19T05:05:24;13.80;99.90
3923;DHT22;1976;51.694;6.256;2023-09-19T05:07:51;13.80;99.90
3923;DHT22;1976;51.694;6.256;2023-09-19T05:10:19;13.90;99.90
3923;DHT22;1976;51.694;6.256;2023-09-19T05:12:45;13.90;99.90
3923;DHT22;1976;51.694;6.256;2023-09-19T05:15:13;13.80;99.90
3923;DHT22;1976;51.694;6.256;2023-09-19T05:17:47;13.90;99.90
3923;DHT22;1976;51.694;6.256;2023-09-19T05:20:12;14.00;99.90
3923;DHT22;1976;51.694;6.256;2023-09-19T05:22:50;13.90;99.90
3923;DHT22;1976;51.694;6.256;2023-09-19T05:25:16;14.00;99.90
3923;DHT22;1976;51.694;6.256;2023-09-19T05:27:44;14.00;99.90
3923;DHT22;1976;51.694;6.256;2023-09-19T05:30:10;14.00;99.90
3923;DHT22;1976;51.694;6.256;2023-09-19T05:32:36;14.10;99.90
3923;DHT22;1976;51.694;6.256;2023-09-19T05:35:01;14.10;99.90
3923;DHT22;1976;51.694;6.256;2023-09-19T05:37:27;14.20;99.90
3923;DHT22;1976;51.694;6.256;2023-09-19T05:39:52;14.20;99.90
3923;DHT22;1976;51.694;6.256;2023-09-19T05:42:21;14.20;99.90
3923;DHT22;1976;51.694;6.256;2023-09-19T05:44:47;14.20;99.90
3923;DHT22;1976;51.694;6.256;2023-09-19T05:47:12;14.20;99.90
3923;DHT22;1976;51.694;6.256;2023-09-19T05:49:38;14.20;99.90
3923;DHT22;1976;51.694;6.256;2023-09-19T05:52:07;14.20;99.90
3923;DHT22;1976;51.694;6.256;2023-09-19T05:54:33;14.30;99.90
3923;DHT22;1976;51.694;6.256;2023-09-19T05:57:02;14.30;99.90
3923;DHT22;1976;51.694;6.256;2023-09-19T05:59:28;14.30;99.90
3923;DHT22;1976;51.694;6.256;2023-09-19T06:01:54;14.40;99.90
3923;DHT22;1976;51.694;6.256;2023-09-19T06:04:20;14.40;99.90
3923;DHT22;1976;51.694;6.256;2023-09-19T06:09:14;14.60;99.90
3923;DHT22;1976;51.694;6.256;2023-09-19T06:11:42;14.60;99.90
3923;DHT22;1976;51.694;6.256;2023-09-19T06:14:07;14.60;99.90
3923;DHT22;1976;51.694;6.256;2023-09-19T06:16:35;14.60;99.90
3923;DHT22;1976;51.694;6.256;2023-09-19T06:19:01;14.60;99.90
3923;DHT22;1976;51.694;6.256;2023-09-19T06:21:27;14.70;99.90
3923;DHT22;1976;51.694;6.256;2023-09-19T06:23:53;14.70;99.90
3923;DHT22;1976;51.694;6.256;2023-09-19T06:26:19;14.80;99.90
3923;DHT22;1976;51.694;6.256;2023-09-19T06:28:45;14.70;99.90
3923;DHT22;1976;51.694;6.256;2023-09-19T06:31:11;14.70;99.90
3923;DHT22;1976;51.694;6.256;2023-09-19T06:33:37;14.70;99.90
3923;DHT22;1976;51.694;6.256;2023-09-19T06:36:06;14.70;99.90
3923;DHT22;1976;51.694;6.256;2023-09-19T06:38:32;14.80;99.90
3923;DHT22;1976;51.694;6.256;2023-09-19T06:41:01;14.80;99.90
3923;DHT22;1976;51.694;6.256;2023-09-19T06:43:30;14.90;99.90
3923;DHT22;1976;51.694;6.256;2023-09-19T06:45:56;15.00;99.90
3923;DHT22;1976;51.694;6.256;2023-09-19T06:48:22;14.90;99.90
3923;DHT22;1976;51.694;6.256;2023-09-19T06:50:50;15.00;99.90
3923;DHT22;1976;51.694;6.256;2023-09-19T06:53:16;15.10;99.90
3923;DHT22;1976;51.694;6.256;2023-09-19T06:55:42;15.10;99.90
3923;DHT22;1976;51.694;6.256;2023-09-19T06:58:09;15.10;99.90
3923;DHT22;1976;51.694;6.256;2023-09-19T07:00:36;15.10;99.90
3923;DHT22;1976;51.694;6.256;2023-09-19T07:03:07;15.10;99.90
3923;DHT22;1976;51.694;6.256;2023-09-19T07:05:38;15.10;99.90
3923;DHT22;1976;51.694;6.256;2023-09-19T07:08:09;15.10;99.90
3923;DHT22;1976;51.694;6.256;2023-09-19T07:10:38;15.10;99.90
3923;DHT22;1976;51.694;6.256;2023-09-19T07:13:07;15.20;99.90
3923;DHT22;1976;51.694;6.256;2023-09-19T07:15:37;15.30;99.90
3923;DHT22;1976;51.694;6.256;2023-09-19T07:18:06;15.40;99.90
3923;DHT22;1976;51.694;6.256;2023-09-19T07:20:32;15.50;99.90
3923;DHT22;1976;51.694;6.256;2023-09-19T07:23:01;15.50;99.90
3923;DHT22;1976;51.694;6.256;2023-09-19T07:25:30;15.50;99.90
3923;DHT22;1976;51.694;6.256;2023-09-19T07:27:56;15.50;99.90
3923;DHT22;1976;51.694;6.256;2023-09-19T07:30:25;15.50;99.90
3923;DHT22;1976;51.694;6.256;2023-09-19T07:32:51;15.50;99.90
3923;DHT22;1976;51.694;6.256;2023-09-19T07:35:17;15.50;99.90
3923;DHT22;1976;51.694;6.256;2023-09-19T07:37:48;15.50;99.90
3923;DHT22;1976;51.694;6.256;2023-09-19T07:40:17;15.50;99.90
3923;DHT22;1976;51.694;6.256;2023-09-19T07:42:43;15.60;99.90
3923;DHT22;1976;51.694;6.256;2023-09-19T07:45:10;15.60;99.90
3923;DHT22;1976;51.694;6.256;2023-09-19T07:47:49;15.60;99.90
3923;DHT22;1976;51.694;6.256;2023-09-19T07:50:16;15.70;99.90
3923;DHT22;1976;51.694;6.256;2023-09-19T07:52:44;15.70;99.90
3923;DHT22;1976;51.694;6.256;2023-09-19T07:55:10;15.90;99.90
3923;DHT22;1976;51.694;6.256;2023-09-19T07:57:37;15.90;99.90
3923;DHT22;1976;51.694;6.256;2023-09-19T08:00:03;15.90;99.90
3923;DHT22;1976;51.694;6.256;2023-09-19T08:02:36;16.00;99.90
3923;DHT22;1976;51.694;6.256;2023-09-19T08:05:04;16.00;99.90
3923;DHT22;1976;51.694;6.256;2023-09-19T08:07:39;16.10;99.90
3923;DHT22;1976;51.694;6.256;2023-09-19T08:10:06;16.10;99.90
3923;DHT22;1976;51.694;6.256;2023-09-19T08:12:44;16.30;99.90
3923;DHT22;1976;51.694;6.256;2023-09-19T08:15:16;16.40;99.90
3923;DHT22;1976;51.694;6.256;2023-09-19T08:17:43;16.50;99.90
3923;DHT22;1976;51.694;6.256;2023-09-19T08:20:09;16.80;99.90
3923;DHT22;1976;51.694;6.256;2023-09-19T08:22:52;16.90;99.90
3923;DHT22;1976;51.694;6.256;2023-09-19T08:25:20;17.10;99.90
3923;DHT22;1976;51.694;6.256;2023-09-19T08:37:51;17.20;99.90
3923;DHT22;1976;51.694;6.256;2023-09-19T08:40:17;17.20;99.90
3923;DHT22;1976;51.694;6.256;2023-09-19T08:42:55;17.20;99.90
3923;DHT22;1976;51.694;6.256;2023-09-19T08:45:23;17.40;99.90
3923;DHT22;1976;51.694;6.256;2023-09-19T08:51:03;17.80;99.90
3923;DHT22;1976;51.694;6.256;2023-09-19T08:53:51;18.20;99.90
3923;DHT22;1976;51.694;6.256;2023-09-19T08:56:18;18.50;99.90
3923;DHT22;1976;51.694;6.256;2023-09-19T08:59:10;18.50;99.90
3923;DHT22;1976;51.694;6.256;2023-09-19T09:01:39;18.30;99.90
3923;DHT22;1976;51.694;6.256;2023-09-19T09:04:08;18.50;99.90
3923;DHT22;1976;51.694;6.256;2023-09-19T09:06:38;18.70;99.90
3923;DHT22;1976;51.694;6.256;2023-09-19T09:09:05;19.10;99.90
3923;DHT22;1976;51.694;6.256;2023-09-19T09:11:33;19.20;99.90
3923;DHT22;1976;51.694;6.256;2023-09-19T09:13:59;19.10;99.90
3923;DHT22;1976;51.694;6.256;2023-09-19T09:16:25;19.20;99.90
3923;DHT22;1976;51.694;6.256;2023-09-19T09:18:51;19.60;99.90
3923;DHT22;1976;51.694;6.256;2023-09-19T09:21:18;20.00;99.90
3923;DHT22;1976;51.694;6.256;2023-09-19T09:23:44;20.70;99.90
3923;DHT22;1976;51.694;6.256;2023-09-19T09:26:09;21.20;99.90
3923;DHT22;1976;51.694;6.256;2023-09-19T09:28:35;21.20;99.90
3923;DHT22;1976;51.694;6.256;2023-09-19T09:31:02;20.00;99.90
3923;DHT22;1976;51.694;6.256;2023-09-19T09:33:33;19.70;99.90
3923;DHT22;1976;51.694;6.256;2023-09-19T09:36:00;20.40;99.90
3923;DHT22;1976;51.694;6.256;2023-09-19T09:38:44;21.20;99.90
3923;DHT22;1976;51.694;6.256;2023-09-19T09:41:11;21.80;99.90
3923;DHT22;1976;51.694;6.256;2023-09-19T09:43:41;22.40;99.50
3923;DHT22;1976;51.694;6.256;2023-09-19T09:46:11;21.80;98.80
3923;DHT22;1976;51.694;6.256;2023-09-19T09:48:46;21.60;99.30
3923;DHT22;1976;51.694;6.256;2023-09-19T09:51:32;22.40;99.60
3923;DHT22;1976;51.694;6.256;2023-09-19T09:54:17;21.80;99.20
3923;DHT22;1976;51.694;6.256;2023-09-19T09:56:59;22.20;99.60
3923;DHT22;1976;51.694;6.256;2023-09-19T09:59:53;21.90;98.80
3923;DHT22;1976;51.694;6.256;2023-09-19T10:02:29;22.40;97.80
3923;DHT22;1976;51.694;6.256;2023-09-19T10:04:56;22.50;97.40
3923;DHT22;1976;51.694;6.256;2023-09-19T10:07:35;22.90;97.10
3923;DHT22;1976;51.694;6.256;2023-09-19T10:10:04;23.50;96.60
3923;DHT22;1976;51.694;6.256;2023-09-19T10:12:47;23.20;96.80
3923;DHT22;1976;51.694;6.256;2023-09-19T10:15:19;23.60;95.70
3923;DHT22;1976;51.694;6.256;2023-09-19T10:17:50;23.40;95.50
3923;DHT22;1976;51.694;6.256;2023-09-19T10:20:19;23.40;95.00
3923;DHT22;1976;51.694;6.256;2023-09-19T10:22:58;23.40;95.70
3923;DHT22;1976;51.694;6.256;2023-09-19T10:25:26;24.00;95.40
3923;DHT22;1976;51.694;6.256;2023-09-19T10:27:54;23.90;94.50
3923;DHT22;1976;51.694;6.256;2023-09-19T10:30:22;24.00;94.70
3923;DHT22;1976;51.694;6.256;2023-09-19T10:33:02;24.50;93.90
3923;DHT22;1976;51.694;6.256;2023-09-19T10:35:28;24.20;93.90
3923;DHT22;1976;51.694;6.256;2023-09-19T10:38:00;24.20;93.60
3923;DHT22;1976;51.694;6.256;2023-09-19T10:40:27;23.80;93.80
3923;DHT22;1976;51.694;6.256;2023-09-19T10:43:05;23.70;94.10
3923;DHT22;1976;51.694;6.256;2023-09-19T10:45:33;24.00;93.60
3923;DHT22;1976;51.694;6.256;2023-09-19T10:48:01;24.50;94.20
3923;DHT22;1976;51.694;6.256;2023-09-19T10:50:44;24.80;94.80
3923;DHT22;1976;51.694;6.256;2023-09-19T10:53:12;24.10;93.50
3923;DHT22;1976;51.694;6.256;2023-09-19T10:55:39;24.20;93.50
3923;DHT22;1976;51.694;6.256;2023-09-19T10:58:06;24.80;94.00
3923;DHT22;1976;51.694;6.256;2023-09-19T11:00:53;25.50;93.00
3923;DHT22;1976;51.694;6.256;2023-09-19T11:03:20;24.30;93.50
3923;DHT22;1976;51.694;6.256;2023-09-19T11:06:11;24.10;94.00
3923;DHT22;1976;51.694;6.256;2023-09-19T11:08:57;23.40;94.80
3923;DHT22;1976;51.694;6.256;2023-09-19T11:25:47;24.20;93.00
3923;DHT22;1976;51.694;6.256;2023-09-19T11:30:47;24.40;92.40
3923;DHT22;1976;51.694;6.256;2023-09-19T11:33:19;24.20;94.70
3923;DHT22;1976;51.694;6.256;2023-09-19T11:36:03;23.50;94.30
3923;DHT22;1976;51.694;6.256;2023-09-19T11:46:27;22.40;94.60
3923;DHT22;1976;51.694;6.256;2023-09-19T11:48:53;22.30;95.80
3923;DHT22;1976;51.694;6.256;2023-09-19T11:51:21;22.80;94.80
3923;DHT22;1976;51.694;6.256;2023-09-19T11:53:54;23.20;94.30
3923;DHT22;1976;51.694;6.256;2023-09-19T11:56:24;23.30;94.10
3923;DHT22;1976;51.694;6.256;2023-09-19T11:58:54;24.30;94.40
3923;DHT22;1976;51.694;6.256;2023-09-19T12:01:27;23.30;93.10
3923;DHT22;1976;51.694;6.256;2023-09-19T12:03:56;22.80;94.00
3923;DHT22;1976;51.694;6.256;2023-09-19T12:06:28;22.70;94.30
3923;DHT22;1976;51.694;6.256;2023-09-19T12:08:58;22.70;94.40
3923;DHT22;1976;51.694;6.256;2023-09-19T12:11:30;22.90;95.00
3923;DHT22;1976;51.694;6.256;2023-09-19T12:13:58;23.20;94.50
3923;DHT22;1976;51.694;6.256;2023-09-19T12:16:26;23.00;93.10
3923;DHT22;1976;51.694;6.256;2023-09-19T12:18:55;22.10;94.00
3923;DHT22;1976;51.694;6.256;2023-09-19T12:21:30;22.00;94.80
3923;DHT22;1976;51.694;6.256;2023-09-19T12:26:42;22.30;94.70
3923;DHT22;1976;51.694;6.256;2023-09-19T12:29:19;22.70;94.50
3923;DHT22;1976;51.694;6.256;2023-09-19T12:31:53;23.40;93.50
3923;DHT22;1976;51.694;6.256;2023-09-19T12:34:26;23.40;94.10
3923;DHT22;1976;51.694;6.256;2023-09-19T12:37:14;23.40;94.00
3923;DHT22;1976;51.694;6.256;2023-09-19T12:39:49;23.50;93.80
3923;DHT22;1976;51.694;6.256;2023-09-19T12:42:17;23.60;93.60
3923;DHT22;1976;51.694;6.256;2023-09-19T12:44:50;24.10;93.00
3923;DHT22;1976;51.694;6.256;2023-09-19T12:47:21;24.10;92.90
3923;DHT22;1976;51.694;6.256;2023-09-19T12:52:49;24.00;92.00
3923;DHT22;1976;51.694;6.256;2023-09-19T12:55:25;23.50;92.70
3923;DHT22;1976;51.694;6.256;2023-09-19T13:00:38;22.90;93.40
3923;DHT22;1976;51.694;6.256;2023-09-19T13:08:31;23.40;93.80
3923;DHT22;1976;51.694;6.256;2023-09-19T13:11:11;23.70;94.50
3923;DHT22;1976;51.694;6.256;2023-09-19T13:13:40;23.50;93.10
3923;DHT22;1976;51.694;6.256;2023-09-19T13:16:06;22.80;93.90
3923;DHT22;1976;51.694;6.256;2023-09-19T13:18:47;22.00;94.80
3923;DHT22;1976;51.694;6.256;2023-09-19T13:21:16;21.50;96.00
3923;DHT22;1976;51.694;6.256;2023-09-19T13:23:56;21.20;96.60
3923;DHT22;1976;51.694;6.256;2023-09-19T13:26:41;21.10;96.60
3923;DHT22;1976;51.694;6.256;2023-09-19T13:29:06;20.70;96.60
3923;DHT22;1976;51.694;6.256;2023-09-19T13:31:32;20.50;97.50
3923;DHT22;1976;51.694;6.256;2023-09-19T13:33:57;20.30;97.90
3923;DHT22;1976;51.694;6.256;2023-09-19T13:36:23;20.20;98.10
3923;DHT22;1976;51.694;6.256;2023-09-19T13:38:48;20.20;98.30
3923;DHT22;1976;51.694;6.256;2023-09-19T13:41:14;20.20;98.50
3923;DHT22;1976;51.694;6.256;2023-09-19T13:43:40;20.30;98.90
3923;DHT22;1976;51.694;6.256;2023-09-19T13:46:06;20.70;98.40
3923;DHT22;1976;51.694;6.256;2023-09-19T13:48:40;21.00;97.80
3923;DHT22;1976;51.694;6.256;2023-09-19T13:51:06;20.90;98.10
3923;DHT22;1976;51.694;6.256;2023-09-19T13:53:31;20.60;98.10
3923;DHT22;1976;51.694;6.256;2023-09-19T13:55:57;20.60;99.30
3923;DHT22;1976;51.694;6.256;2023-09-19T13:58:22;20.70;98.90
3923;DHT22;1976;51.694;6.256;2023-09-19T14:00:49;20.50;98.90
3923;DHT22;1976;51.694;6.256;2023-09-19T14:03:15;20.40;99.00
3923;DHT22;1976;51.694;6.256;2023-09-19T14:05:40;20.20;99.00
3923;DHT22;1976;51.694;6.256;2023-09-19T14:08:08;20.20;99.90
3923;DHT22;1976;51.694;6.256;2023-09-19T14:10:34;20.00;99.90
3923;DHT22;1976;51.694;6.256;2023-09-19T14:13:00;20.00;99.90
3923;DHT22;1976;51.694;6.256;2023-09-19T14:15:27;20.10;99.80
3923;DHT22;1976;51.694;6.256;2023-09-19T14:17:59;20.10;99.50
3923;DHT22;1976;51.694;6.256;2023-09-19T14:20:26;20.10;99.60
3923;DHT22;1976;51.694;6.256;2023-09-19T14:22:55;20.20;99.80
3923;DHT22;1976;51.694;6.256;2023-09-19T14:25:21;20.40;99.70
3923;DHT22;1976;51.694;6.256;2023-09-19T14:27:47;20.80;98.70
3923;DHT22;1976;51.694;6.256;2023-09-19T14:30:13;20.70;98.90
3923;DHT22;1976;51.694;6.256;2023-09-19T14:32:39;20.90;99.20
3923;DHT22;1976;51.694;6.256;2023-09-19T14:35:06;21.30;98.40
3923;DHT22;1976;51.694;6.256;2023-09-19T14:37:32;21.50;97.50
3923;DHT22;1976;51.694;6.256;2023-09-19T14:39:58;21.30;97.90
3923;DHT22;1976;51.694;6.256;2023-09-19T14:42:23;21.20;98.20
3923;DHT22;1976;51.694;6.256;2023-09-19T14:44:49;21.10;98.00
3923;DHT22;1976;51.694;6.256;2023-09-19T14:47:15;21.60;97.70
3923;DHT22;1976;51.694;6.256;2023-09-19T14:49:42;21.30;98.20
3923;DHT22;1976;51.694;6.256;2023-09-19T14:52:09;21.20;98.20
3923;DHT22;1976;51.694;6.256;2023-09-19T14:54:35;21.00;98.20
3923;DHT22;1976;51.694;6.256;2023-09-19T14:57:03;20.90;99.40
3923;DHT22;1976;51.694;6.256;2023-09-19T14:59:33;20.60;98.70
3923;DHT22;1976;51.694;6.256;2023-09-19T15:02:03;20.60;99.80
3923;DHT22;1976;51.694;6.256;2023-09-19T15:04:29;20.50;99.70
3923;DHT22;1976;51.694;6.256;2023-09-19T15:06:55;20.50;99.50
3923;DHT22;1976;51.694;6.256;2023-09-19T15:09:24;20.50;99.90
3923;DHT22;1976;51.694;6.256;2023-09-19T15:11:55;20.60;98.90
3923;DHT22;1976;51.694;6.256;2023-09-19T15:14:21;20.60;99.70
3923;DHT22;1976;51.694;6.256;2023-09-19T15:16:47;20.70;99.70
3923;DHT22;1976;51.694;6.256;2023-09-19T15:19:14;20.50;98.90
3923;DHT22;1976;51.694;6.256;2023-09-19T15:21:40;20.30;99.80
3923;DHT22;1976;51.694;6.256;2023-09-19T15:24:06;20.10;99.80
3923;DHT22;1976;51.694;6.256;2023-09-19T15:26:35;20.00;99.90
3923;DHT22;1976;51.694;6.256;2023-09-19T15:29:08;20.00;99.90
3923;DHT22;1976;51.694;6.256;2023-09-19T15:31:35;19.90;99.90
3923;DHT22;1976;51.694;6.256;2023-09-19T15:34:04;19.90;99.90
3923;DHT22;1976;51.694;6.256;2023-09-19T15:36:31;19.80;99.90
3923;DHT22;1976;51.694;6.256;2023-09-19T15:39:03;19.70;99.90
3923;DHT22;1976;51.694;6.256;2023-09-19T15:41:37;19.70;99.90
3923;DHT22;1976;51.694;6.256;2023-09-19T15:44:04;19.80;99.90
3923;DHT22;1976;51.694;6.256;2023-09-19T15:46:31;19.80;99.90
3923;DHT22;1976;51.694;6.256;2023-09-19T15:48:59;19.90;99.90
3923;DHT22;1976;51.694;6.256;2023-09-19T15:51:25;20.00;99.90
3923;DHT22;1976;51.694;6.256;2023-09-19T15:53:53;20.00;99.90
3923;DHT22;1976;51.694;6.256;2023-09-19T15:56:20;19.80;99.90
3923;DHT22;1976;51.694;6.256;2023-09-19T15:58:51;19.80;99.90
3923;DHT22;1976;51.694;6.256;2023-09-19T16:01:17;19.80;99.90
3923;DHT22;1976;51.694;6.256;2023-09-19T16:03:46;19.80;99.90
3923;DHT22;1976;51.694;6.256;2023-09-19T16:06:16;19.60;99.90
3923;DHT22;1976;51.694;6.256;2023-09-19T16:08:47;19.70;99.90
3923;DHT22;1976;51.694;6.256;2023-09-19T16:11:13;19.50;99.90
3923;DHT22;1976;51.694;6.256;2023-09-19T16:13:40;19.50;99.90
3923;DHT22;1976;51.694;6.256;2023-09-19T16:16:07;19.40;99.90
3923;DHT22;1976;51.694;6.256;2023-09-19T16:18:34;19.30;99.90
3923;DHT22;1976;51.694;6.256;2023-09-19T16:21:03;19.30;99.90
3923;DHT22;1976;51.694;6.256;2023-09-19T16:23:32;19.20;99.90
3923;DHT22;1976;51.694;6.256;2023-09-19T16:26:06;19.20;99.90
3923;DHT22;1976;51.694;6.256;2023-09-19T16:28:32;19.20;99.90
3923;DHT22;1976;51.694;6.256;2023-09-19T16:31:00;19.30;99.90
3923;DHT22;1976;51.694;6.256;2023-09-19T16:33:27;19.30;99.90
3923;DHT22;1976;51.694;6.256;2023-09-19T16:35:53;19.30;99.90
3923;DHT22;1976;51.694;6.256;2023-09-19T16:38:19;19.30;99.90
3923;DHT22;1976;51.694;6.256;2023-09-19T16:40:52;19.40;99.90
3923;DHT22;1976;51.694;6.256;2023-09-19T16:43:19;19.30;99.90
3923;DHT22;1976;51.694;6.256;2023-09-19T16:45:58;19.20;99.90
3923;DHT22;1976;51.694;6.256;2023-09-19T16:48:25;19.20;99.90
3923;DHT22;1976;51.694;6.256;2023-09-19T16:50:51;19.10;99.90
3923;DHT22;1976;51.694;6.256;2023-09-19T16:53:18;19.10;99.90
3923;DHT22;1976;51.694;6.256;2023-09-19T16:55:47;19.20;99.90
3923;DHT22;1976;51.694;6.256;2023-09-19T16:58:14;19.10;99.90
3923;DHT22;1976;51.694;6.256;2023-09-19T17:00:40;19.10;99.90
3923;DHT22;1976;51.694;6.256;2023-09-19T17:03:06;19.10;99.90
3923;DHT22;1976;51.694;6.256;2023-09-19T17:05:32;19.10;99.90
3923;DHT22;1976;51.694;6.256;2023-09-19T17:07:58;19.10;99.90
3923;DHT22;1976;51.694;6.256;2023-09-19T17:10:24;19.10;99.90
3923;DHT22;1976;51.694;6.256;2023-09-19T17:12:53;19.00;99.90
3923;DHT22;1976;51.694;6.256;2023-09-19T17:15:21;19.00;99.90
3923;DHT22;1976;51.694;6.256;2023-09-19T17:17:46;19.00;99.90
3923;DHT22;1976;51.694;6.256;2023-09-19T17:20:12;19.00;99.90